Time;durP1;ratioP1;P1;durP2;ratioP2;P2;SDS_P1;SDS_P2;PMS_P1;PMS_P2;Temp;Humidity;BMP_temperature;BMP_pressure;BME280_temperature;BME280_humidity;BME280_pressure;Samples;Min_cycle;Max_cycle;Signal;HPM_P1;HPM_P2
2023/12/19 00:01:47;;;;;;;4.07;2.47;;;3.00;99.90;;;;;;5012506;28;20026;-74
2023/12/19 00:04:14;;;;;;;11.50;3.58;;;3.10;99.90;;;;;;4993539;28;20033;-75
2023/12/19 00:06:40;;;;;;;2.33;1.48;;;3.10;99.90;;;;;;5012588;28;20065;-73
2023/12/19 00:09:06;;;;;;;5.15;3.70;;;3.10;99.90;;;;;;5011642;28;20034;-73
2023/12/19 00:11:31;;;;;;;3.88;2.85;;;3.10;99.90;;;;;;4991425;28;20077;-73
2023/12/19 00:13:57;;;;;;;3.50;2.80;;;3.10;99.90;;;;;;5011624;28;20018;-72
2023/12/19 00:16:23;;;;;;;5.07;3.00;;;3.10;99.90;;;;;;4994726;28;20088;-72
2023/12/19 00:18:49;;;;;;;4.40;2.35;;;3.10;99.90;;;;;;4993953;28;20042;-73
2023/12/19 00:21:15;;;;;;;3.88;3.17;;;3.20;99.90;;;;;;5012081;28;20029;-73
2023/12/19 00:23:40;;;;;;;5.63;3.42;;;3.20;99.90;;;;;;5010032;28;20077;-73
2023/12/19 00:26:06;;;;;;;2.15;1.95;;;3.30;99.90;;;;;;5011595;28;20128;-73
2023/12/19 00:28:34;;;;;;;2.78;2.22;;;3.30;99.90;;;;;;5011439;28;20084;-73
2023/12/19 00:31:00;;;;;;;6.90;3.03;;;3.30;99.90;;;;;;5011751;28;20022;-73
2023/12/19 00:33:26;;;;;;;5.18;2.67;;;3.30;99.90;;;;;;5011387;28;20022;-74
2023/12/19 00:35:51;;;;;;;4.43;3.08;;;3.30;99.90;;;;;;4996576;28;20497;-73
2023/12/19 00:38:17;;;;;;;13.75;4.55;;;3.40;99.90;;;;;;5018064;28;20025;-73
2023/12/19 00:40:44;;;;;;;4.18;2.75;;;3.40;99.90;;;;;;5018437;28;20702;-73
2023/12/19 00:43:10;;;;;;;14.95;2.67;;;3.40;99.90;;;;;;5017716;28;20033;-73
2023/12/19 00:45:36;;;;;;;3.75;2.67;;;3.40;99.90;;;;;;5018286;28;20509;-73
2023/12/19 00:48:02;;;;;;;7.72;4.30;;;3.40;99.90;;;;;;5018275;28;20033;-74
2023/12/19 00:50:28;;;;;;;5.30;2.97;;;3.50;99.90;;;;;;5000581;28;20030;-73
2023/12/19 00:52:53;;;;;;;7.03;3.25;;;3.50;99.90;;;;;;4999813;28;20469;-73
2023/12/19 00:55:19;;;;;;;7.30;5.03;;;3.50;99.90;;;;;;5018120;28;20032;-73
2023/12/19 00:57:45;;;;;;;6.68;3.92;;;3.60;99.90;;;;;;5016407;28;20108;-73
2023/12/19 01:00:11;;;;;;;3.72;2.42;;;3.70;99.90;;;;;;5018544;28;20524;-72
2023/12/19 01:02:37;;;;;;;2.15;1.98;;;3.70;99.90;;;;;;5016127;28;20108;-73
2023/12/19 01:05:03;;;;;;;7.10;3.50;;;3.70;99.90;;;;;;5016606;28;20104;-73
2023/12/19 01:07:29;;;;;;;3.15;2.35;;;3.70;99.90;;;;;;5000429;28;20025;-72
2023/12/19 01:09:55;;;;;;;4.03;3.25;;;3.70;99.90;;;;;;5018128;28;20037;-72
2023/12/19 01:12:20;;;;;;;4.10;2.38;;;3.70;99.90;;;;;;5000484;28;20022;-73
2023/12/19 01:14:46;;;;;;;5.43;3.55;;;3.70;99.90;;;;;;5017406;28;20033;-72
2023/12/19 01:17:12;;;;;;;4.95;2.42;;;3.70;99.90;;;;;;5017842;28;20105;-74
2023/12/19 01:19:38;;;;;;;7.28;5.18;;;3.60;99.90;;;;;;5017081;28;20402;-73
2023/12/19 01:22:04;;;;;;;4.88;2.70;;;3.60;99.90;;;;;;5017814;28;20033;-74
2023/12/19 01:24:30;;;;;;;8.88;3.60;;;3.60;99.90;;;;;;5017281;28;20028;-74
2023/12/19 01:26:56;;;;;;;4.97;3.03;;;3.50;99.90;;;;;;5017942;28;20025;-74
2023/12/19 01:29:22;;;;;;;2.55;2.13;;;3.50;99.90;;;;;;5017475;28;20037;-74
2023/12/19 01:31:49;;;;;;;3.10;1.83;;;3.50;99.90;;;;;;5016203;28;20034;-74
2023/12/19 01:34:14;;;;;;;6.53;2.08;;;3.40;99.90;;;;;;5017373;28;20433;-74
2023/12/19 01:36:45;;;;;;;2.38;1.95;;;3.40;99.90;;;;;;5017460;28;20029;-74
2023/12/19 01:39:11;;;;;;;5.50;2.50;;;3.40;99.90;;;;;;5017419;28;20048;-74
2023/12/19 01:41:37;;;;;;;2.50;2.05;;;3.40;99.90;;;;;;5017403;28;20030;-74
2023/12/19 01:44:03;;;;;;;1.98;1.67;;;3.40;99.90;;;;;;5016967;28;20096;-74
2023/12/19 01:46:29;;;;;;;3.65;2.92;;;3.40;99.90;;;;;;5017686;28;20018;-74
2023/12/19 01:48:57;;;;;;;1.65;1.40;;;3.40;99.90;;;;;;4995742;28;20030;-74
2023/12/19 01:51:23;;;;;;;4.47;2.97;;;3.40;99.90;;;;;;5013122;28;20025;-74
2023/12/19 01:53:49;;;;;;;6.20;2.75;;;3.30;99.90;;;;;;5013751;28;20041;-74
2023/12/19 01:56:19;;;;;;;1.85;1.60;;;3.30;99.90;;;;;;5014454;28;20017;-74
2023/12/19 01:58:46;;;;;;;1.92;1.60;;;3.20;99.90;;;;;;4996058;28;20036;-74
2023/12/19 02:01:12;;;;;;;3.80;1.60;;;3.20;99.90;;;;;;4996942;28;20026;-74
2023/12/19 02:03:41;;;;;;;3.58;3.28;;;3.10;99.90;;;;;;5013601;28;20030;-74
2023/12/19 02:06:07;;;;;;;4.13;2.30;;;3.10;99.90;;;;;;5010101;28;20811;-75
2023/12/19 02:08:34;;;;;;;5.45;2.25;;;3.00;99.90;;;;;;5013363;28;20132;-74
2023/12/19 02:11:00;;;;;;;5.07;2.85;;;3.00;99.90;;;;;;5014007;28;20174;-73
2023/12/19 02:13:26;;;;;;;3.05;1.92;;;3.00;99.90;;;;;;5012265;28;20022;-74
2023/12/19 02:15:52;;;;;;;4.60;1.80;;;3.00;99.90;;;;;;5016774;28;20482;-73
2023/12/19 02:18:20;;;;;;;2.08;1.48;;;3.10;99.90;;;;;;5016828;28;20390;-73
2023/12/19 02:20:46;;;;;;;9.85;2.13;;;3.10;99.90;;;;;;4983251;28;20057;-73
2023/12/19 02:23:16;;;;;;;5.15;2.10;;;3.10;99.90;;;;;;5012933;28;20096;-73
2023/12/19 02:25:42;;;;;;;3.83;3.22;;;3.20;99.90;;;;;;5014878;28;20034;-73
2023/12/19 02:28:09;;;;;;;5.82;3.53;;;3.20;99.90;;;;;;4995219;28;20033;-72
2023/12/19 02:30:35;;;;;;;3.22;1.13;;;3.20;99.90;;;;;;4985555;28;20134;-72
2023/12/19 02:33:04;;;;;;;4.28;2.38;;;3.20;99.90;;;;;;4994957;28;20026;-72
2023/12/19 02:35:31;;;;;;;4.05;1.88;;;3.20;99.90;;;;;;5012146;28;20018;-73
2023/12/19 02:37:57;;;;;;;5.80;2.50;;;3.20;99.90;;;;;;4994594;28;20072;-73
2023/12/19 02:40:23;;;;;;;6.25;2.25;;;3.20;99.90;;;;;;5013866;28;20037;-72
2023/12/19 02:42:49;;;;;;;4.03;2.22;;;3.10;99.90;;;;;;4995413;28;20041;-73
2023/12/19 02:45:15;;;;;;;4.20;3.67;;;3.10;99.90;;;;;;4992552;28;20026;-72
2023/12/19 02:47:42;;;;;;;4.55;3.03;;;3.00;99.90;;;;;;5011222;28;20030;-72
2023/12/19 02:50:08;;;;;;;3.10;1.90;;;3.00;99.90;;;;;;4996177;28;20022;-73
2023/12/19 02:52:34;;;;;;;7.57;3.00;;;3.00;99.90;;;;;;4988905;28;20022;-73
2023/12/19 02:55:00;;;;;;;2.92;1.98;;;2.90;99.90;;;;;;4992146;28;20155;-73
2023/12/19 02:57:26;;;;;;;4.10;2.67;;;2.80;99.90;;;;;;4984788;28;20030;-73
2023/12/19 02:59:52;;;;;;;4.32;2.20;;;2.90;99.90;;;;;;5011495;28;20026;-73
2023/12/19 03:02:17;;;;;;;4.82;2.05;;;2.90;99.90;;;;;;4991993;28;20018;-73
2023/12/19 03:04:43;;;;;;;6.28;2.72;;;2.70;99.90;;;;;;4985191;28;20039;-73
2023/12/19 03:07:10;;;;;;;9.18;1.55;;;2.70;99.90;;;;;;5012763;28;20080;-74
2023/12/19 03:09:36;;;;;;;5.68;3.05;;;2.60;99.90;;;;;;4994817;28;20041;-74
2023/12/19 03:12:07;;;;;;;8.55;3.70;;;2.60;99.90;;;;;;5012611;28;20025;-74
2023/12/19 03:14:35;;;;;;;8.98;2.13;;;2.60;99.90;;;;;;5011256;28;20032;-74
2023/12/19 03:17:05;;;;;;;8.23;1.83;;;2.50;99.90;;;;;;4987165;28;20033;-74
2023/12/19 03:19:31;;;;;;;11.05;3.38;;;2.50;99.90;;;;;;5011634;28;20025;-74
2023/12/19 03:21:57;;;;;;;6.05;2.85;;;2.40;99.90;;;;;;4981342;28;20076;-74
2023/12/19 03:24:23;;;;;;;6.65;3.08;;;2.40;99.90;;;;;;4971014;28;20071;-74
2023/12/19 03:26:49;;;;;;;9.27;3.63;;;2.30;99.90;;;;;;4948972;28;20039;-74
2023/12/19 03:29:15;;;;;;;5.72;2.47;;;2.40;99.90;;;;;;4955130;28;20135;-73
2023/12/19 03:31:42;;;;;;;5.85;3.33;;;2.40;99.90;;;;;;4970478;28;20043;-73
2023/12/19 03:34:08;;;;;;;8.35;3.15;;;2.40;99.90;;;;;;4971073;28;20054;-73
2023/12/19 03:36:34;;;;;;;9.32;4.60;;;2.30;99.90;;;;;;4948248;28;20184;-73
2023/12/19 03:39:00;;;;;;;4.93;3.28;;;2.30;99.90;;;;;;4962936;28;20121;-74
2023/12/19 03:41:25;;;;;;;8.13;3.88;;;2.20;99.90;;;;;;4949523;28;20166;-74
2023/12/19 03:43:51;;;;;;;11.00;3.95;;;2.20;99.90;;;;;;4969470;28;20066;-74
2023/12/19 03:46:17;;;;;;;10.10;3.88;;;2.20;99.90;;;;;;4974313;28;20039;-74
2023/12/19 03:48:45;;;;;;;8.20;4.88;;;2.10;99.90;;;;;;4968511;28;20041;-73
2023/12/19 03:51:11;;;;;;;5.80;3.60;;;2.10;99.90;;;;;;4951486;28;20193;-73
2023/12/19 03:53:37;;;;;;;7.50;4.28;;;2.10;99.90;;;;;;4967415;28;20023;-72
2023/12/19 03:56:04;;;;;;;5.65;3.85;;;2.00;99.90;;;;;;4999507;28;20042;-75
2023/12/19 03:58:29;;;;;;;8.70;3.85;;;1.90;99.90;;;;;;5011947;28;20431;-74
2023/12/19 04:00:55;;;;;;;7.03;3.28;;;1.80;99.90;;;;;;5018103;28;20108;-75
2023/12/19 04:03:21;;;;;;;7.28;4.03;;;1.70;99.90;;;;;;4997526;28;20033;-74
2023/12/19 04:05:47;;;;;;;6.25;3.35;;;1.70;99.90;;;;;;5011340;28;20564;-73
2023/12/19 04:08:12;;;;;;;5.68;2.95;;;1.70;99.90;;;;;;5012158;28;20064;-73
2023/12/19 04:10:38;;;;;;;5.30;3.60;;;1.70;99.90;;;;;;5010992;28;20125;-73
2023/12/19 04:13:04;;;;;;;14.85;4.57;;;1.70;99.90;;;;;;5011629;28;20030;-74
2023/12/19 04:15:30;;;;;;;6.20;3.25;;;1.70;99.90;;;;;;5012146;28;20117;-74
2023/12/19 04:17:56;;;;;;;10.18;2.80;;;1.80;99.90;;;;;;4993351;28;20048;-74
2023/12/19 04:20:22;;;;;;;7.70;4.15;;;1.80;99.90;;;;;;5011091;28;20065;-75
2023/12/19 04:22:47;;;;;;;5.35;2.95;;;1.70;99.90;;;;;;5009992;28;20124;-73
2023/12/19 04:25:13;;;;;;;9.48;3.85;;;1.70;99.90;;;;;;4996051;28;20029;-73
2023/12/19 04:27:39;;;;;;;5.47;3.45;;;1.70;99.90;;;;;;5013751;28;20046;-74
2023/12/19 04:30:06;;;;;;;12.30;3.03;;;1.70;99.90;;;;;;5010492;28;20030;-74
2023/12/19 04:32:32;;;;;;;7.90;4.70;;;1.80;99.90;;;;;;5010512;28;20018;-74
2023/12/19 04:34:58;;;;;;;10.90;4.00;;;1.80;99.90;;;;;;5011656;28;20036;-73
2023/12/19 04:37:23;;;;;;;10.90;4.32;;;1.80;99.90;;;;;;5014886;28;20049;-74
2023/12/19 04:39:49;;;;;;;8.68;3.90;;;1.70;99.90;;;;;;5011631;28;20117;-75
2023/12/19 04:42:18;;;;;;;9.45;4.30;;;1.60;99.90;;;;;;5011198;28;20091;-74
2023/12/19 04:44:46;;;;;;;8.48;4.70;;;1.60;99.90;;;;;;5011459;28;20470;-74
2023/12/19 04:47:11;;;;;;;8.77;3.92;;;1.60;99.90;;;;;;5011537;28;20038;-74
2023/12/19 04:49:39;;;;;;;7.78;3.85;;;1.50;99.90;;;;;;5010207;28;20485;-74
2023/12/19 04:52:05;;;;;;;6.75;3.60;;;1.50;99.90;;;;;;4987223;28;20030;-74
2023/12/19 04:54:31;;;;;;;7.53;3.42;;;1.50;99.90;;;;;;4994195;28;20022;-75
2023/12/19 04:56:57;;;;;;;8.45;4.93;;;1.50;99.90;;;;;;5009785;28;20022;-73
2023/12/19 04:59:22;;;;;;;9.75;4.13;;;1.50;99.90;;;;;;5011798;28;20414;-74
2023/12/19 05:01:48;;;;;;;10.30;4.15;;;1.60;99.90;;;;;;5008106;28;20108;-73
2023/12/19 05:04:14;;;;;;;6.80;3.08;;;1.60;99.90;;;;;;4996080;28;20343;-73
2023/12/19 05:06:40;;;;;;;10.27;5.32;;;1.50;99.90;;;;;;5015577;28;20160;-74
2023/12/19 05:09:05;;;;;;;7.88;4.75;;;1.50;99.90;;;;;;5011150;28;20038;-74
2023/12/19 05:11:31;;;;;;;7.25;4.55;;;1.40;99.90;;;;;;4968814;28;20039;-74
2023/12/19 05:13:57;;;;;;;10.77;4.28;;;1.40;99.90;;;;;;4969298;28;20039;-74
2023/12/19 05:16:23;;;;;;;10.70;4.15;;;1.30;99.90;;;;;;4964539;28;20114;-74
2023/12/19 05:18:49;;;;;;;13.13;6.38;;;1.30;99.90;;;;;;4960268;28;20522;-73
2023/12/19 05:21:15;;;;;;;10.65;4.53;;;1.20;99.90;;;;;;4961873;28;20106;-74
2023/12/19 05:23:41;;;;;;;9.93;4.60;;;1.20;99.90;;;;;;4957970;28;20039;-74
2023/12/19 05:26:07;;;;;;;12.00;4.68;;;1.20;99.90;;;;;;4957358;28;20042;-74
2023/12/19 05:28:42;;;;;;;9.55;4.70;;;1.10;99.90;;;;;;4973964;28;20030;-74
2023/12/19 05:31:09;;;;;;;24.50;12.13;;;1.10;99.90;;;;;;4969825;28;20046;-74
2023/12/19 05:33:35;;;;;;;7.43;3.83;;;1.40;99.90;;;;;;4969581;28;20368;-74
2023/12/19 05:36:02;;;;;;;15.30;6.28;;;1.30;99.90;;;;;;4970905;28;20037;-76
2023/12/19 05:38:31;;;;;;;12.60;7.22;;;1.30;99.90;;;;;;4969245;28;20058;-74
2023/12/19 05:40:57;;;;;;;9.43;4.80;;;1.20;99.90;;;;;;4963738;28;20073;-73
2023/12/19 05:43:23;;;;;;;7.93;4.68;;;1.10;99.90;;;;;;5003863;28;20034;-75
2023/12/19 05:45:50;;;;;;;6.63;4.05;;;1.10;99.90;;;;;;5012973;28;20069;-74
2023/12/19 05:48:20;;;;;;;8.45;5.15;;;1.00;99.90;;;;;;4997547;28;20033;-74
2023/12/19 05:50:47;;;;;;;9.13;5.18;;;0.80;99.90;;;;;;5018544;28;20061;-75
2023/12/19 05:53:12;;;;;;;13.75;7.18;;;0.90;99.90;;;;;;5014328;28;20462;-74
2023/12/19 05:55:38;;;;;;;15.38;4.82;;;0.80;99.90;;;;;;5002107;28;20025;-75
2023/12/19 05:58:04;;;;;;;12.50;5.05;;;0.80;99.90;;;;;;5013577;28;20040;-74
2023/12/19 06:00:30;;;;;;;8.50;5.18;;;0.80;99.90;;;;;;5014321;28;20022;-73
2023/12/19 06:02:55;;;;;;;11.30;5.38;;;0.80;99.90;;;;;;5013845;28;20447;-74
2023/12/19 06:05:21;;;;;;;8.75;4.95;;;0.70;99.90;;;;;;4997009;28;20065;-74
2023/12/19 06:07:47;;;;;;;8.85;4.45;;;0.70;99.90;;;;;;5014113;28;20037;-74
2023/12/19 06:10:14;;;;;;;9.32;4.47;;;0.70;99.90;;;;;;4998921;28;20555;-74
2023/12/19 06:12:40;;;;;;;6.95;4.22;;;0.70;99.90;;;;;;5011982;28;20144;-73
2023/12/19 06:15:12;;;;;;;8.10;4.68;;;0.70;99.90;;;;;;5014675;28;20101;-74
2023/12/19 06:18:16;;;;;;;8.27;5.20;;;0.70;99.90;;;;;;5002912;28;20041;-74
2023/12/19 06:20:42;;;;;;;9.43;4.60;;;0.80;99.90;;;;;;4998228;28;20401;-75
2023/12/19 06:23:09;;;;;;;4.30;3.15;;;0.80;99.90;;;;;;5014206;28;20060;-73
2023/12/19 06:25:35;;;;;;;10.82;4.25;;;0.80;99.90;;;;;;5013997;28;20029;-74
2023/12/19 06:28:01;;;;;;;7.00;3.75;;;0.80;99.90;;;;;;5011864;28;20041;-71
2023/12/19 06:30:27;;;;;;;11.63;5.65;;;0.70;99.90;;;;;;5013311;28;20062;-73
2023/12/19 06:32:52;;;;;;;8.68;3.17;;;0.70;99.90;;;;;;5012745;28;20060;-73
2023/12/19 06:35:18;;;;;;;7.90;4.20;;;0.70;99.90;;;;;;5012956;28;20026;-73
2023/12/19 06:37:44;;;;;;;6.90;5.57;;;0.60;99.90;;;;;;5012652;28;20437;-72
2023/12/19 06:40:11;;;;;;;8.07;3.97;;;0.60;99.90;;;;;;5012549;28;20038;-73
2023/12/19 06:42:37;;;;;;;6.70;3.95;;;0.50;99.90;;;;;;5013051;28;20022;-73
2023/12/19 06:45:03;;;;;;;8.05;3.97;;;0.40;99.90;;;;;;5011217;28;20029;-73
2023/12/19 06:47:29;;;;;;;7.53;4.43;;;0.50;99.90;;;;;;4997162;28;20466;-73
2023/12/19 06:49:55;;;;;;;11.13;5.07;;;0.50;99.90;;;;;;5012164;28;20062;-73
2023/12/19 06:52:20;;;;;;;6.57;3.65;;;0.40;99.90;;;;;;4996390;28;20031;-74
2023/12/19 06:54:46;;;;;;;8.27;3.92;;;0.40;99.90;;;;;;4995296;28;20026;-73
2023/12/19 06:57:12;;;;;;;4.82;3.97;;;0.30;99.90;;;;;;5012860;28;20022;-73
2023/12/19 06:59:39;;;;;;;7.15;3.45;;;0.40;99.90;;;;;;5013156;28;20026;-73
2023/12/19 07:02:05;;;;;;;6.82;4.45;;;0.40;99.90;;;;;;4991351;28;20057;-73
2023/12/19 07:04:31;;;;;;;8.93;4.57;;;0.60;99.90;;;;;;5011365;28;20111;-73
2023/12/19 07:06:57;;;;;;;9.13;4.03;;;0.50;99.90;;;;;;4990359;28;20076;-73
2023/12/19 07:09:22;;;;;;;13.23;5.82;;;0.60;99.90;;;;;;5012969;28;20033;-73
2023/12/19 07:11:48;;;;;;;11.75;6.90;;;0.60;99.90;;;;;;5012614;28;20483;-73
2023/12/19 07:14:14;;;;;;;10.63;4.90;;;0.70;99.90;;;;;;4994939;28;20068;-74
2023/12/19 07:16:40;;;;;;;11.38;4.65;;;0.70;99.90;;;;;;5013611;28;20036;-74
2023/12/19 07:19:05;;;;;;;9.50;5.85;;;0.70;99.90;;;;;;5020915;23;20112;-71
2023/12/19 07:21:32;;;;;;;11.77;6.68;;;0.70;99.90;;;;;;4993687;28;20429;-72
2023/12/19 07:23:59;;;;;;;7.05;4.22;;;0.70;99.90;;;;;;4989841;28;20038;-70
2023/12/19 07:26:27;;;;;;;11.00;6.03;;;0.70;99.90;;;;;;4994561;28;20026;-72
2023/12/19 07:28:54;;;;;;;12.20;5.20;;;0.70;99.90;;;;;;5002082;28;20539;-71
2023/12/19 07:31:22;;;;;;;24.10;7.10;;;0.80;99.90;;;;;;5007857;28;20030;-71
2023/12/19 07:33:47;;;;;;;9.40;5.75;;;0.80;99.90;;;;;;5000302;28;20038;-72
2023/12/19 07:36:13;;;;;;;11.10;6.00;;;0.90;99.90;;;;;;4981999;28;20080;-68
2023/12/19 07:38:39;;;;;;;8.40;4.82;;;0.90;99.90;;;;;;5005601;28;20078;-68
2023/12/19 07:41:04;;;;;;;15.27;5.20;;;0.90;99.90;;;;;;4993096;28;20551;-68
2023/12/19 07:43:32;;;;;;;7.93;4.43;;;1.00;99.90;;;;;;4992340;28;20034;-69
2023/12/19 07:45:58;;;;;;;8.23;5.07;;;1.00;99.90;;;;;;4992045;28;20026;-69
2023/12/19 07:48:24;;;;;;;11.93;5.72;;;1.00;99.90;;;;;;4992992;28;20030;-69
2023/12/19 07:50:50;;;;;;;8.60;4.68;;;1.00;99.90;;;;;;4992911;28;20050;-69
2023/12/19 07:53:15;;;;;;;11.25;5.53;;;1.10;99.90;;;;;;4992531;28;20092;-72
2023/12/19 07:55:41;;;;;;;9.10;6.38;;;1.40;99.90;;;;;;4992639;28;20027;-72
2023/12/19 07:58:07;;;;;;;17.05;7.05;;;1.50;99.90;;;;;;5005710;28;20050;-72
2023/12/19 08:00:33;;;;;;;13.85;5.63;;;1.60;99.90;;;;;;5007152;28;20109;-72
2023/12/19 08:02:59;;;;;;;13.10;5.95;;;1.70;99.90;;;;;;4991040;28;20598;-72
2023/12/19 08:05:24;;;;;;;8.80;5.10;;;1.70;99.90;;;;;;4992728;28;20026;-72
2023/12/19 08:07:50;;;;;;;12.75;5.88;;;1.70;99.90;;;;;;4992165;28;20041;-72
2023/12/19 08:10:16;;;;;;;5.38;3.53;;;1.70;99.90;;;;;;4992711;28;20050;-72
2023/12/19 08:12:41;;;;;;;10.00;5.20;;;1.70;99.90;;;;;;4992242;28;20026;-72
2023/12/19 08:15:10;;;;;;;14.32;5.22;;;1.60;99.90;;;;;;4990235;28;20497;-72
2023/12/19 08:17:38;;;;;;;13.20;4.72;;;1.60;99.90;;;;;;5007986;28;20049;-72
2023/12/19 08:20:05;;;;;;;15.80;6.30;;;1.60;99.90;;;;;;4986999;28;20054;-72
2023/12/19 08:22:31;;;;;;;15.25;5.80;;;1.60;99.90;;;;;;4988298;28;20093;-72
2023/12/19 08:24:57;;;;;;;3.42;2.72;;;1.60;99.90;;;;;;4991260;28;20141;-72
2023/12/19 08:27:26;;;;;;;7.03;4.07;;;1.60;99.90;;;;;;4991210;28;20037;-72
2023/12/19 08:29:52;;;;;;;12.93;5.38;;;1.60;99.90;;;;;;4991862;28;20132;-72
2023/12/19 08:32:18;;;;;;;9.60;4.70;;;1.70;99.90;;;;;;4992129;28;20101;-72
2023/12/19 08:34:43;;;;;;;10.48;4.18;;;1.80;99.90;;;;;;4991425;28;20463;-72
2023/12/19 08:37:09;;;;;;;12.80;5.28;;;1.80;99.90;;;;;;4992384;28;20478;-72
2023/12/19 08:39:35;;;;;;;10.88;4.85;;;1.80;99.90;;;;;;4992235;28;20042;-73
2023/12/19 08:42:01;;;;;;;10.27;3.95;;;1.90;99.90;;;;;;4991062;28;20034;-72
2023/12/19 08:44:26;;;;;;;7.65;5.03;;;1.90;99.90;;;;;;4988205;28;20038;-73
2023/12/19 08:46:53;;;;;;;7.85;4.93;;;2.00;99.90;;;;;;4992510;28;20061;-71
2023/12/19 08:49:19;;;;;;;13.60;5.72;;;2.00;99.90;;;;;;4991410;28;20034;-70
2023/12/19 08:51:48;;;;;;;10.60;4.05;;;1.90;99.90;;;;;;4990414;28;20506;-71
2023/12/19 08:54:14;;;;;;;7.38;4.25;;;1.90;99.90;;;;;;4976329;28;20030;-71
2023/12/19 08:56:41;;;;;;;11.05;4.50;;;1.90;99.90;;;;;;4991488;28;20154;-71
2023/12/19 08:59:07;;;;;;;11.10;5.57;;;1.80;99.90;;;;;;4989480;28;20027;-72
2023/12/19 09:01:33;;;;;;;19.45;4.53;;;1.90;99.90;;;;;;4996234;28;20105;-72
2023/12/19 09:04:00;;;;;;;9.35;4.15;;;2.00;99.90;;;;;;4994055;28;20034;-71
2023/12/19 09:06:26;;;;;;;10.48;5.18;;;2.00;99.90;;;;;;4994666;28;20038;-72
2023/12/19 09:08:51;;;;;;;6.53;3.65;;;2.10;99.90;;;;;;4994877;28;20133;-72
2023/12/19 09:11:17;;;;;;;8.00;4.22;;;2.10;99.90;;;;;;4995883;28;20030;-72
2023/12/19 09:13:43;;;;;;;10.77;4.53;;;2.20;99.90;;;;;;4991473;28;20035;-72
2023/12/19 09:16:09;;;;;;;10.18;4.47;;;2.20;99.90;;;;;;5009987;28;20110;-72
2023/12/19 09:18:35;;;;;;;14.25;4.40;;;2.30;99.90;;;;;;4995567;28;20022;-72
2023/12/19 09:21:01;;;;;;;9.35;3.95;;;2.30;99.90;;;;;;4992603;28;20597;-72
2023/12/19 09:23:27;;;;;;;6.85;4.85;;;2.30;99.90;;;;;;4994609;28;20046;-72
2023/12/19 09:25:53;;;;;;;7.15;3.78;;;2.20;99.90;;;;;;4995171;28;20041;-72
2023/12/19 09:28:19;;;;;;;5.13;3.83;;;2.30;99.90;;;;;;5010968;28;20601;-72
2023/12/19 09:30:44;;;;;;;9.00;5.72;;;2.20;99.90;;;;;;4994096;28;20065;-72
2023/12/19 09:33:10;;;;;;;12.77;5.50;;;2.30;99.90;;;;;;4995526;28;20034;-72
2023/12/19 09:35:36;;;;;;;8.50;4.43;;;2.40;99.90;;;;;;4994650;28;20049;-72
2023/12/19 09:38:04;;;;;;;6.05;2.85;;;2.40;99.90;;;;;;4994650;28;20382;-72
2023/12/19 09:40:31;;;;;;;6.93;4.20;;;2.50;99.90;;;;;;4995506;28;20077;-72
2023/12/19 09:42:57;;;;;;;9.00;5.22;;;2.60;99.90;;;;;;4992421;28;20034;-72
2023/12/19 09:45:24;;;;;;;4.78;3.42;;;2.70;99.90;;;;;;4993056;28;20061;-72
2023/12/19 09:48:01;;;;;;;6.82;3.80;;;2.60;99.90;;;;;;4977101;28;20087;-72
2023/12/19 09:50:31;;;;;;;9.23;4.20;;;2.80;99.90;;;;;;4994083;28;20038;-72
2023/12/19 09:52:57;;;;;;;7.97;4.88;;;2.80;99.90;;;;;;4994736;28;20030;-73
2023/12/19 09:55:30;;;;;;;6.43;3.10;;;2.90;99.90;;;;;;4992407;28;20384;-71
2023/12/19 09:57:58;;;;;;;10.20;4.05;;;2.90;99.90;;;;;;4993354;28;20467;-72
2023/12/19 10:00:25;;;;;;;8.23;4.15;;;2.90;99.90;;;;;;4994115;28;20030;-72
2023/12/19 10:02:52;;;;;;;9.68;4.90;;;3.00;99.90;;;;;;4994456;28;20030;-71
2023/12/19 10:05:18;;;;;;;8.15;4.20;;;2.90;99.90;;;;;;4994168;28;20034;-72
2023/12/19 10:07:44;;;;;;;7.93;4.88;;;3.10;99.90;;;;;;4993242;28;20081;-72
2023/12/19 10:10:11;;;;;;;11.55;4.13;;;3.10;99.90;;;;;;4993697;28;20069;-71
2023/12/19 10:12:50;;;;;;;10.20;4.10;;;3.20;99.90;;;;;;4995102;28;20072;-72
2023/12/19 10:15:16;;;;;;;7.72;3.60;;;3.20;99.90;;;;;;4986115;28;20149;-72
2023/12/19 10:18:10;;;;;;;8.93;3.38;;;3.20;99.90;;;;;;4980811;28;20121;-72
2023/12/19 10:20:38;;;;;;;10.00;4.00;;;3.20;99.90;;;;;;4991784;28;20037;-72
2023/12/19 10:23:06;;;;;;;10.52;3.75;;;3.20;99.90;;;;;;4986135;28;20025;-72
2023/12/19 10:25:33;;;;;;;10.43;3.60;;;3.20;99.90;;;;;;4990934;28;20421;-66
2023/12/19 10:28:08;;;;;;;6.03;3.53;;;3.20;99.90;;;;;;4992728;28;20034;-66
2023/12/19 10:30:38;;;;;;;10.05;5.15;;;3.30;99.90;;;;;;4993347;28;20096;-69
2023/12/19 10:33:04;;;;;;;7.82;3.63;;;3.30;99.90;;;;;;4985127;28;20037;-70
2023/12/19 10:35:41;;;;;;;6.80;4.45;;;3.30;99.90;;;;;;4994083;28;20042;-70
2023/12/19 10:38:07;;;;;;;7.03;4.10;;;3.30;99.90;;;;;;5006121;28;20101;-70
2023/12/19 10:40:33;;;;;;;7.00;3.30;;;3.30;99.90;;;;;;4993757;28;20109;-70
2023/12/19 10:42:58;;;;;;;6.13;3.28;;;3.30;99.90;;;;;;4993016;28;20046;-70
2023/12/19 10:45:28;;;;;;;9.90;4.03;;;3.30;99.90;;;;;;4985796;28;20497;-70
2023/12/19 10:47:53;;;;;;;6.57;3.63;;;3.30;99.90;;;;;;4993031;28;20117;-70
2023/12/19 10:50:21;;;;;;;7.45;3.20;;;3.30;99.90;;;;;;4992114;28;20180;-68
2023/12/19 10:52:51;;;;;;;8.88;3.97;;;3.20;99.90;;;;;;4992972;28;20031;-69
2023/12/19 10:55:21;;;;;;;7.35;4.03;;;3.20;99.90;;;;;;4993504;28;20478;-69
2023/12/19 10:57:49;;;;;;;8.67;5.03;;;3.30;99.90;;;;;;4991442;28;20116;-69
2023/12/19 11:00:24;;;;;;;7.03;4.00;;;3.30;99.90;;;;;;5001494;28;20038;-69
2023/12/19 11:03:22;;;;;;;7.57;4.25;;;3.40;99.90;;;;;;5008138;28;20045;-69
2023/12/19 11:05:52;;;;;;;8.82;3.28;;;3.50;99.90;;;;;;4991408;28;20036;-69
2023/12/19 11:08:19;;;;;;;10.45;3.60;;;3.50;99.90;;;;;;4991991;28;20033;-69
2023/12/19 11:10:52;;;;;;;11.77;4.07;;;3.50;99.90;;;;;;4991376;28;20764;-69
2023/12/19 11:13:18;;;;;;;10.90;4.85;;;3.50;99.90;;;;;;4991528;28;20328;-70
2023/12/19 11:16:12;;;;;;;6.03;3.95;;;3.60;99.90;;;;;;4990640;28;20069;-69
2023/12/19 11:19:04;;;;;;;9.73;3.17;;;3.70;99.90;;;;;;4990867;28;20096;-69
2023/12/19 11:22:05;;;;;;;18.33;4.18;;;3.70;99.90;;;;;;4986191;28;20089;-69
2023/12/19 11:24:42;;;;;;;12.43;4.50;;;3.70;99.90;;;;;;4986836;28;20398;-69
2023/12/19 11:27:27;;;;;;;14.65;4.50;;;3.70;99.90;;;;;;4984578;28;20515;-69
2023/12/19 11:29:53;;;;;;;5.70;3.28;;;3.70;99.90;;;;;;4990350;28;20034;-69
2023/12/19 11:32:28;;;;;;;9.13;4.25;;;3.70;99.90;;;;;;4992574;28;20387;-68
2023/12/19 11:35:12;;;;;;;5.82;3.88;;;3.80;99.90;;;;;;4990109;28;20027;-68
2023/12/19 11:37:43;;;;;;;9.13;3.13;;;3.80;99.90;;;;;;4991285;28;20491;-68
2023/12/19 11:40:35;;;;;;;8.80;4.38;;;3.80;99.90;;;;;;4998890;28;20041;-68
2023/12/19 11:43:01;;;;;;;7.00;3.92;;;3.90;99.90;;;;;;4990990;28;20038;-69
2023/12/19 11:45:26;;;;;;;10.68;4.40;;;3.90;99.90;;;;;;4990924;28;20486;-68
2023/12/19 11:47:53;;;;;;;6.35;3.53;;;3.90;99.90;;;;;;4992052;28;20038;-68
2023/12/19 11:50:40;;;;;;;7.68;3.42;;;3.90;99.90;;;;;;4991446;28;20030;-68
2023/12/19 11:53:07;;;;;;;6.53;3.58;;;3.80;99.90;;;;;;4984373;28;20061;-68
2023/12/19 11:55:32;;;;;;;6.30;3.28;;;3.80;99.90;;;;;;4990762;28;20093;-68
2023/12/19 11:58:12;;;;;;;5.50;2.92;;;3.90;99.90;;;;;;4991659;28;20049;-67
2023/12/19 12:00:39;;;;;;;5.70;3.63;;;3.90;99.90;;;;;;4991472;28;20064;-68
2023/12/19 12:03:12;;;;;;;5.90;3.50;;;3.90;99.90;;;;;;4990331;28;20023;-68
2023/12/19 12:05:38;;;;;;;10.07;4.13;;;3.90;99.90;;;;;;4989185;28;20088;-72
2023/12/19 12:08:04;;;;;;;6.60;1.77;;;4.00;99.90;;;;;;4990759;28;20022;-69
2023/12/19 12:10:31;;;;;;;3.53;2.13;;;4.10;99.90;;;;;;5005890;28;20065;-70
2023/12/19 12:13:04;;;;;;;6.97;2.53;;;4.30;99.90;;;;;;5006768;28;20126;-70
2023/12/19 12:15:30;;;;;;;7.45;2.45;;;4.40;99.90;;;;;;4991240;28;20018;-70
2023/12/19 12:18:04;;;;;;;7.30;2.83;;;4.40;99.90;;;;;;4991731;28;20088;-70
2023/12/19 12:20:32;;;;;;;2.95;1.88;;;4.40;99.90;;;;;;4991748;28;20530;-70
2023/12/19 12:22:58;;;;;;;4.40;2.50;;;4.50;99.90;;;;;;4989865;28;20395;-70
2023/12/19 12:25:25;;;;;;;3.45;1.58;;;4.60;99.90;;;;;;4990860;28;20081;-69
2023/12/19 12:27:55;;;;;;;8.63;2.47;;;4.60;99.90;;;;;;4974473;28;20036;-69
2023/12/19 12:30:27;;;;;;;5.80;1.77;;;4.70;99.90;;;;;;4990313;28;20121;-69
2023/12/19 12:32:54;;;;;;;;;;;4.60;99.90;;;;;;4991464;28;20113;-69
2023/12/19 12:35:38;;;;;;;4.32;2.05;;;4.60;99.90;;;;;;4990745;28;19931;-69
2023/12/19 12:38:16;;;;;;;4.68;1.80;;;4.60;99.90;;;;;;4990583;28;20027;-69
2023/12/19 12:41:00;;;;;;;3.03;1.48;;;4.90;99.90;;;;;;4989781;28;20117;-69
2023/12/19 12:43:35;;;;;;;3.15;1.83;;;4.90;99.90;;;;;;4990300;28;20062;-69
2023/12/19 12:46:27;;;;;;;2.65;1.73;;;5.00;99.90;;;;;;5007057;28;20105;-70
2023/12/19 12:48:53;;;;;;;2.42;1.23;;;5.20;99.90;;;;;;4989703;28;20035;-69
2023/12/19 12:51:23;;;;;;;6.47;2.03;;;5.30;99.90;;;;;;4990856;28;20045;-69
2023/12/19 12:53:59;;;;;;;3.17;1.92;;;5.20;99.90;;;;;;4990670;28;20033;-70
2023/12/19 12:56:35;;;;;;;6.00;1.83;;;4.90;99.90;;;;;;4991021;28;20112;-69
2023/12/19 12:59:06;;;;;;;2.78;1.52;;;4.70;99.90;;;;;;4992227;28;20023;-70